sensor_id;sensor_type;location;lat;lon;timestamp;pressure;altitude;pressure_sealevel;temperature;humidity
70971;BME280;58632;51.718;19.446;2022-07-23T00:00:20;99621.22;;;21.54;59.06
70971;BME280;58632;51.718;19.446;2022-07-23T00:02:50;99621.59;;;21.49;59.13
70971;BME280;58632;51.718;19.446;2022-07-23T00:05:17;99617.83;;;21.44;59.02
70971;BME280;58632;51.718;19.446;2022-07-23T00:07:44;99617.64;;;21.43;59.30
70971;BME280;58632;51.718;19.446;2022-07-23T00:10:11;99622.80;;;21.45;59.52
70971;BME280;58632;51.718;19.446;2022-07-23T00:12:39;99621.20;;;21.40;59.64
70971;BME280;58632;51.718;19.446;2022-07-23T00:15:08;99617.81;;;21.37;59.70
70971;BME280;58632;51.718;19.446;2022-07-23T00:17:36;99622.41;;;21.35;59.76
70971;BME280;58632;51.718;19.446;2022-07-23T00:20:04;99619.81;;;21.29;59.95
70971;BME280;58632;51.718;19.446;2022-07-23T00:22:32;99625.56;;;21.23;60.08
70971;BME280;58632;51.718;19.446;2022-07-23T00:24:59;99625.00;;;21.17;60.31
70971;BME280;58632;51.718;19.446;2022-07-23T00:27:27;99628.37;;;21.12;60.39
70971;BME280;58632;51.718;19.446;2022-07-23T00:29:54;99625.18;;;21.10;60.62
70971;BME280;58632;51.718;19.446;2022-07-23T00:32:21;99629.34;;;21.07;60.65
70971;BME280;58632;51.718;19.446;2022-07-23T00:34:48;99635.33;;;21.05;60.65
70971;BME280;58632;51.718;19.446;2022-07-23T00:37:15;99636.50;;;21.11;60.97
70971;BME280;58632;51.718;19.446;2022-07-23T00:39:42;99643.66;;;21.16;60.86
70971;BME280;58632;51.718;19.446;2022-07-23T00:42:09;99637.91;;;21.22;60.96
70971;BME280;58632;51.718;19.446;2022-07-23T00:44:36;99648.66;;;21.24;60.86
70971;BME280;58632;51.718;19.446;2022-07-23T00:47:03;99649.44;;;21.21;60.74
70971;BME280;58632;51.718;19.446;2022-07-23T00:49:32;99636.91;;;21.13;60.72
70971;BME280;58632;51.718;19.446;2022-07-23T00:52:02;99639.88;;;21.04;60.86
70971;BME280;58632;51.718;19.446;2022-07-23T00:54:30;99641.28;;;20.93;61.06
70971;BME280;58632;51.718;19.446;2022-07-23T00:56:57;99637.27;;;20.83;61.21
70971;BME280;58632;51.718;19.446;2022-07-23T00:59:24;99639.84;;;20.79;61.61
70971;BME280;58632;51.718;19.446;2022-07-23T01:01:51;99640.45;;;20.75;61.57
70971;BME280;58632;51.718;19.446;2022-07-23T01:04:18;99639.45;;;20.73;61.54
70971;BME280;58632;51.718;19.446;2022-07-23T01:06:46;99640.64;;;20.72;61.51
70971;BME280;58632;51.718;19.446;2022-07-23T01:09:13;99635.87;;;20.72;61.62
70971;BME280;58632;51.718;19.446;2022-07-23T01:11:41;99631.88;;;20.66;61.63
70971;BME280;58632;51.718;19.446;2022-07-23T01:14:14;99635.45;;;20.63;61.79
70971;BME280;58632;51.718;19.446;2022-07-23T01:16:44;99637.42;;;20.59;61.82
70971;BME280;58632;51.718;19.446;2022-07-23T01:19:13;99639.03;;;20.60;61.79
70971;BME280;58632;51.718;19.446;2022-07-23T01:21:43;99634.86;;;20.60;61.63
70971;BME280;58632;51.718;19.446;2022-07-23T01:24:12;99636.44;;;20.58;61.83
70971;BME280;58632;51.718;19.446;2022-07-23T01:26:43;99637.64;;;20.60;61.76
70971;BME280;58632;51.718;19.446;2022-07-23T01:29:12;99633.25;;;20.56;61.96
70971;BME280;58632;51.718;19.446;2022-07-23T01:31:41;99639.34;;;20.44;62.24
70971;BME280;58632;51.718;19.446;2022-07-23T01:34:09;99637.93;;;20.37;62.31
70971;BME280;58632;51.718;19.446;2022-07-23T01:36:37;99637.70;;;20.36;62.44
70971;BME280;58632;51.718;19.446;2022-07-23T01:39:06;99646.46;;;20.35;62.50
70971;BME280;58632;51.718;19.446;2022-07-23T01:41:35;99643.63;;;20.20;62.84
70971;BME280;58632;51.718;19.446;2022-07-23T01:44:02;99643.59;;;20.13;62.92
70971;BME280;58632;51.718;19.446;2022-07-23T01:46:29;99645.74;;;20.10;62.99
70971;BME280;58632;51.718;19.446;2022-07-23T01:48:57;99637.81;;;20.08;63.06
70971;BME280;58632;51.718;19.446;2022-07-23T01:51:24;99637.59;;;20.07;63.09
70971;BME280;58632;51.718;19.446;2022-07-23T01:53:51;99633.39;;;20.00;63.30
70971;BME280;58632;51.718;19.446;2022-07-23T01:56:18;99636.17;;;19.97;63.24
70971;BME280;58632;51.718;19.446;2022-07-23T01:58:50;99633.98;;;19.96;63.05
70971;BME280;58632;51.718;19.446;2022-07-23T02:01:17;99628.59;;;19.94;63.19
70971;BME280;58632;51.718;19.446;2022-07-23T02:03:44;99623.03;;;19.94;63.27
70971;BME280;58632;51.718;19.446;2022-07-23T02:06:12;99626.63;;;19.94;63.38
70971;BME280;58632;51.718;19.446;2022-07-23T02:08:39;99631.78;;;19.92;63.31
70971;BME280;58632;51.718;19.446;2022-07-23T02:11:06;99637.11;;;19.87;63.59
70971;BME280;58632;51.718;19.446;2022-07-23T02:13:34;99627.38;;;19.87;63.42
70971;BME280;58632;51.718;19.446;2022-07-23T02:16:01;99634.94;;;19.91;63.44
70971;BME280;58632;51.718;19.446;2022-07-23T02:18:28;99634.94;;;19.91;63.44
70971;BME280;58632;51.718;19.446;2022-07-23T02:20:55;99638.28;;;19.86;63.44
70971;BME280;58632;51.718;19.446;2022-07-23T02:23:22;99640.89;;;19.61;64.01
70971;BME280;58632;51.718;19.446;2022-07-23T02:25:49;99633.44;;;19.49;64.25
70971;BME280;58632;51.718;19.446;2022-07-23T02:28:17;99624.41;;;19.31;64.63
70971;BME280;58632;51.718;19.446;2022-07-23T02:30:44;99639.85;;;19.29;64.95
70971;BME280;58632;51.718;19.446;2022-07-23T02:33:12;99642.87;;;19.09;65.49
70971;BME280;58632;51.718;19.446;2022-07-23T02:35:39;99638.47;;;19.04;65.58
70971;BME280;58632;51.718;19.446;2022-07-23T02:38:06;99634.23;;;18.97;65.83
70971;BME280;58632;51.718;19.446;2022-07-23T02:40:33;99632.63;;;18.96;65.95
70971;BME280;58632;51.718;19.446;2022-07-23T02:43:00;99624.95;;;18.99;65.69
70971;BME280;58632;51.718;19.446;2022-07-23T02:45:27;99628.39;;;19.10;65.62
70971;BME280;58632;51.718;19.446;2022-07-23T02:47:54;99625.31;;;19.22;65.66
70971;BME280;58632;51.718;19.446;2022-07-23T02:50:21;99617.88;;;19.33;65.55
70971;BME280;58632;51.718;19.446;2022-07-23T02:52:49;99613.77;;;19.40;65.42
70971;BME280;58632;51.718;19.446;2022-07-23T02:55:17;99622.28;;;19.41;65.24
70971;BME280;58632;51.718;19.446;2022-07-23T02:57:44;99634.31;;;19.32;65.18
70971;BME280;58632;51.718;19.446;2022-07-23T03:00:12;99633.15;;;19.33;65.31
70971;BME280;58632;51.718;19.446;2022-07-23T03:02:40;99622.46;;;19.35;65.33
70971;BME280;58632;51.718;19.446;2022-07-23T03:05:08;99624.88;;;19.44;65.28
70971;BME280;58632;51.718;19.446;2022-07-23T03:07:35;99628.48;;;19.48;65.04
70971;BME280;58632;51.718;19.446;2022-07-23T03:10:03;99621.27;;;19.36;65.22
70971;BME280;58632;51.718;19.446;2022-07-23T03:12:31;99619.51;;;19.41;65.34
70971;BME280;58632;51.718;19.446;2022-07-23T03:14:58;99618.59;;;19.51;65.19
70971;BME280;58632;51.718;19.446;2022-07-23T03:17:25;99617.70;;;19.63;64.97
70971;BME280;58632;51.718;19.446;2022-07-23T03:19:52;99616.38;;;19.74;64.72
70971;BME280;58632;51.718;19.446;2022-07-23T03:22:19;99609.25;;;19.77;64.49
70971;BME280;58632;51.718;19.446;2022-07-23T03:24:46;99618.78;;;19.76;64.46
70971;BME280;58632;51.718;19.446;2022-07-23T03:27:24;99617.59;;;19.77;64.40
70971;BME280;58632;51.718;19.446;2022-07-23T03:29:54;99613.27;;;19.83;64.37
70971;BME280;58632;51.718;19.446;2022-07-23T03:32:23;99616.88;;;19.91;64.35
70971;BME280;58632;51.718;19.446;2022-07-23T03:34:51;99615.52;;;19.98;64.10
70971;BME280;58632;51.718;19.446;2022-07-23T03:37:19;99616.94;;;20.01;63.97
70971;BME280;58632;51.718;19.446;2022-07-23T03:39:46;99616.30;;;19.95;64.10
70971;BME280;58632;51.718;19.446;2022-07-23T03:42:13;99615.92;;;20.00;64.21
70971;BME280;58632;51.718;19.446;2022-07-23T03:44:40;99617.76;;;20.09;64.06
70971;BME280;58632;51.718;19.446;2022-07-23T03:47:08;99613.81;;;20.17;63.94
70971;BME280;58632;51.718;19.446;2022-07-23T03:49:35;99610.86;;;20.23;63.88
70971;BME280;58632;51.718;19.446;2022-07-23T03:52:03;99617.23;;;20.31;63.69
70971;BME280;58632;51.718;19.446;2022-07-23T03:54:30;99615.48;;;20.40;63.61
70971;BME280;58632;51.718;19.446;2022-07-23T03:56:58;99606.76;;;20.45;63.62
70971;BME280;58632;51.718;19.446;2022-07-23T03:59:24;99613.97;;;20.57;63.54
70971;BME280;58632;51.718;19.446;2022-07-23T04:01:52;99616.98;;;20.65;63.38
70971;BME280;58632;51.718;19.446;2022-07-23T04:04:19;99609.64;;;20.81;63.17
70971;BME280;58632;51.718;19.446;2022-07-23T04:06:46;99611.44;;;20.90;63.09
70971;BME280;58632;51.718;19.446;2022-07-23T04:09:13;99609.28;;;20.93;63.09
70971;BME280;58632;51.718;19.446;2022-07-23T04:11:40;99619.02;;;21.00;63.14
70971;BME280;58632;51.718;19.446;2022-07-23T04:14:07;99606.90;;;21.17;62.92
70971;BME280;58632;51.718;19.446;2022-07-23T04:16:35;99606.50;;;21.43;62.49
70971;BME280;58632;51.718;19.446;2022-07-23T04:19:02;99607.30;;;21.47;62.43
70971;BME280;58632;51.718;19.446;2022-07-23T04:21:30;99604.68;;;21.66;62.06
70971;BME280;58632;51.718;19.446;2022-07-23T04:23:58;99605.62;;;21.86;61.74
70971;BME280;58632;51.718;19.446;2022-07-23T04:26:25;99606.98;;;21.93;61.47
70971;BME280;58632;51.718;19.446;2022-07-23T04:28:52;99608.05;;;22.31;60.99
70971;BME280;58632;51.718;19.446;2022-07-23T04:31:20;99606.20;;;23.71;58.65
70971;BME280;58632;51.718;19.446;2022-07-23T04:33:47;99607.11;;;25.02;57.25
70971;BME280;58632;51.718;19.446;2022-07-23T04:36:14;99599.73;;;26.23;55.64
70971;BME280;58632;51.718;19.446;2022-07-23T04:38:41;99600.25;;;27.31;53.04
70971;BME280;58632;51.718;19.446;2022-07-23T04:41:08;99603.58;;;28.30;51.09
70971;BME280;58632;51.718;19.446;2022-07-23T04:43:35;99606.46;;;29.24;49.42
70971;BME280;58632;51.718;19.446;2022-07-23T04:46:02;99597.00;;;30.05;47.19
70971;BME280;58632;51.718;19.446;2022-07-23T04:48:30;99593.81;;;30.83;45.09
70971;BME280;58632;51.718;19.446;2022-07-23T04:50:57;99596.04;;;31.56;43.38
70971;BME280;58632;51.718;19.446;2022-07-23T04:53:25;99594.10;;;32.27;42.60
70971;BME280;58632;51.718;19.446;2022-07-23T04:55:52;99603.17;;;32.87;40.16
70971;BME280;58632;51.718;19.446;2022-07-23T04:58:19;99594.12;;;33.31;38.87
70971;BME280;58632;51.718;19.446;2022-07-23T05:00:47;99597.21;;;33.82;37.71
70971;BME280;58632;51.718;19.446;2022-07-23T05:03:15;99600.92;;;34.37;36.45
70971;BME280;58632;51.718;19.446;2022-07-23T05:05:42;99593.52;;;34.90;35.93
70971;BME280;58632;51.718;19.446;2022-07-23T05:08:09;99592.88;;;35.46;33.62
70971;BME280;58632;51.718;19.446;2022-07-23T05:10:37;99592.06;;;35.76;33.78
70971;BME280;58632;51.718;19.446;2022-07-23T05:13:04;99592.05;;;36.39;32.57
70971;BME280;58632;51.718;19.446;2022-07-23T05:15:31;99590.94;;;37.48;30.69
70971;BME280;58632;51.718;19.446;2022-07-23T05:17:59;99590.94;;;37.48;30.69
70971;BME280;58632;51.718;19.446;2022-07-23T05:20:26;99602.51;;;37.93;30.34
70971;BME280;58632;51.718;19.446;2022-07-23T05:22:53;99600.64;;;38.23;29.69
70971;BME280;58632;51.718;19.446;2022-07-23T05:25:20;99597.49;;;38.83;28.36
70971;BME280;58632;51.718;19.446;2022-07-23T05:27:47;99595.70;;;39.26;27.28
70971;BME280;58632;51.718;19.446;2022-07-23T05:30:14;99592.83;;;39.67;26.46
70971;BME280;58632;51.718;19.446;2022-07-23T05:32:42;99587.31;;;39.74;26.38
70971;BME280;58632;51.718;19.446;2022-07-23T05:35:09;99586.22;;;39.36;26.19
70971;BME280;58632;51.718;19.446;2022-07-23T05:37:37;99588.77;;;38.88;27.70
70971;BME280;58632;51.718;19.446;2022-07-23T05:40:07;99586.03;;;39.00;27.54
70971;BME280;58632;51.718;19.446;2022-07-23T05:42:38;99583.63;;;39.27;26.71
70971;BME280;58632;51.718;19.446;2022-07-23T05:45:07;99577.23;;;39.62;25.73
70971;BME280;58632;51.718;19.446;2022-07-23T05:47:44;99577.11;;;39.85;25.95
70971;BME280;58632;51.718;19.446;2022-07-23T05:50:14;99578.95;;;40.18;25.10
70971;BME280;58632;51.718;19.446;2022-07-23T05:52:42;99578.63;;;40.45;24.38
70971;BME280;58632;51.718;19.446;2022-07-23T05:55:10;99586.62;;;40.70;24.53
70971;BME280;58632;51.718;19.446;2022-07-23T05:57:39;99574.91;;;41.30;23.54
70971;BME280;58632;51.718;19.446;2022-07-23T06:00:09;99574.28;;;41.68;22.88
70971;BME280;58632;51.718;19.446;2022-07-23T06:02:38;99571.69;;;42.02;22.58
70971;BME280;58632;51.718;19.446;2022-07-23T06:05:07;99566.77;;;42.48;21.79
70971;BME280;58632;51.718;19.446;2022-07-23T06:07:35;99569.36;;;42.85;21.17
70971;BME280;58632;51.718;19.446;2022-07-23T06:10:04;99563.84;;;43.07;21.22
70971;BME280;58632;51.718;19.446;2022-07-23T06:12:31;99567.26;;;43.06;20.74
70971;BME280;58632;51.718;19.446;2022-07-23T06:14:59;99567.92;;;42.92;20.28
70971;BME280;58632;51.718;19.446;2022-07-23T06:17:26;99564.45;;;42.73;20.43
70971;BME280;58632;51.718;19.446;2022-07-23T06:19:55;99562.80;;;42.58;20.06
70971;BME280;58632;51.718;19.446;2022-07-23T06:22:23;99560.93;;;42.22;20.27
70971;BME280;58632;51.718;19.446;2022-07-23T06:24:51;99553.59;;;42.14;21.05
70971;BME280;58632;51.718;19.446;2022-07-23T06:27:18;99551.27;;;41.49;20.81
70971;BME280;58632;51.718;19.446;2022-07-23T06:29:46;99546.67;;;41.21;21.67
70971;BME280;58632;51.718;19.446;2022-07-23T06:32:13;99544.83;;;40.99;21.76
70971;BME280;58632;51.718;19.446;2022-07-23T06:34:40;99538.37;;;40.93;22.98
70971;BME280;58632;51.718;19.446;2022-07-23T06:37:07;99541.94;;;40.50;22.49
70971;BME280;58632;51.718;19.446;2022-07-23T06:39:35;99537.76;;;39.85;22.80
70971;BME280;58632;51.718;19.446;2022-07-23T06:42:02;99535.15;;;39.40;22.95
70971;BME280;58632;51.718;19.446;2022-07-23T06:44:29;99531.06;;;39.18;25.04
70971;BME280;58632;51.718;19.446;2022-07-23T06:46:57;99536.64;;;38.94;24.86
70971;BME280;58632;51.718;19.446;2022-07-23T06:49:24;99532.55;;;38.50;24.01
70971;BME280;58632;51.718;19.446;2022-07-23T06:51:51;99530.19;;;38.03;25.07
70971;BME280;58632;51.718;19.446;2022-07-23T06:54:18;99530.16;;;37.81;25.41
70971;BME280;58632;51.718;19.446;2022-07-23T06:56:45;99539.38;;;37.42;26.38
70971;BME280;58632;51.718;19.446;2022-07-23T06:59:12;99537.17;;;37.36;26.81
70971;BME280;58632;51.718;19.446;2022-07-23T07:01:39;99536.03;;;37.11;26.46
70971;BME280;58632;51.718;19.446;2022-07-23T07:04:07;99533.44;;;37.07;26.04
70971;BME280;58632;51.718;19.446;2022-07-23T07:06:34;99535.63;;;37.07;26.49
70971;BME280;58632;51.718;19.446;2022-07-23T07:09:02;99533.33;;;37.12;26.05
70971;BME280;58632;51.718;19.446;2022-07-23T07:11:29;99532.19;;;37.25;25.89
70971;BME280;58632;51.718;19.446;2022-07-23T07:13:56;99530.72;;;37.14;26.25
70971;BME280;58632;51.718;19.446;2022-07-23T07:16:23;99523.45;;;37.13;27.11
70971;BME280;58632;51.718;19.446;2022-07-23T07:18:50;99520.77;;;37.19;27.40
70971;BME280;58632;51.718;19.446;2022-07-23T07:21:17;99523.11;;;37.21;26.15
70971;BME280;58632;51.718;19.446;2022-07-23T07:23:44;99529.50;;;37.32;26.33
70971;BME280;58632;51.718;19.446;2022-07-23T07:26:11;99533.06;;;37.15;26.71
70971;BME280;58632;51.718;19.446;2022-07-23T07:28:39;99528.77;;;36.88;26.45
70971;BME280;58632;51.718;19.446;2022-07-23T07:31:06;99531.90;;;36.90;25.48
70971;BME280;58632;51.718;19.446;2022-07-23T07:33:34;99530.51;;;37.01;26.15
70971;BME280;58632;51.718;19.446;2022-07-23T07:36:01;99532.84;;;37.24;26.09
70971;BME280;58632;51.718;19.446;2022-07-23T07:38:28;99537.04;;;37.73;25.60
70971;BME280;58632;51.718;19.446;2022-07-23T07:40:55;99537.04;;;37.73;25.60
70971;BME280;58632;51.718;19.446;2022-07-23T07:43:23;99541.14;;;37.55;25.54
70971;BME280;58632;51.718;19.446;2022-07-23T07:45:50;99541.14;;;37.55;25.54
70971;BME280;58632;51.718;19.446;2022-07-23T07:48:17;99537.41;;;37.05;26.51
70971;BME280;58632;51.718;19.446;2022-07-23T07:50:44;99539.62;;;36.46;27.07
70971;BME280;58632;51.718;19.446;2022-07-23T07:53:11;99555.19;;;36.03;27.91
70971;BME280;58632;51.718;19.446;2022-07-23T07:55:38;99554.78;;;36.00;27.56
70971;BME280;58632;51.718;19.446;2022-07-23T07:58:05;99554.53;;;36.46;27.83
70971;BME280;58632;51.718;19.446;2022-07-23T08:00:33;99555.83;;;36.82;27.78
70971;BME280;58632;51.718;19.446;2022-07-23T08:03:00;99560.17;;;36.94;27.44
70971;BME280;58632;51.718;19.446;2022-07-23T08:05:28;99556.27;;;36.91;28.54
70971;BME280;58632;51.718;19.446;2022-07-23T08:07:58;99561.61;;;36.72;26.79
70971;BME280;58632;51.718;19.446;2022-07-23T08:10:27;99558.87;;;36.36;26.69
70971;BME280;58632;51.718;19.446;2022-07-23T08:12:56;99552.42;;;36.41;26.93
70971;BME280;58632;51.718;19.446;2022-07-23T08:15:25;99543.78;;;36.45;26.79
70971;BME280;58632;51.718;19.446;2022-07-23T08:17:55;99542.35;;;36.45;26.30
70971;BME280;58632;51.718;19.446;2022-07-23T08:20:24;99540.96;;;36.35;26.65
70971;BME280;58632;51.718;19.446;2022-07-23T08:22:55;99540.83;;;36.18;29.02
70971;BME280;58632;51.718;19.446;2022-07-23T08:25:26;99542.15;;;35.81;28.27
70971;BME280;58632;51.718;19.446;2022-07-23T08:28:00;99535.56;;;35.59;29.84
70971;BME280;58632;51.718;19.446;2022-07-23T08:30:30;99532.97;;;35.35;29.30
70971;BME280;58632;51.718;19.446;2022-07-23T08:33:04;99527.02;;;35.59;30.17
70971;BME280;58632;51.718;19.446;2022-07-23T08:35:40;99526.72;;;35.77;28.31
70971;BME280;58632;51.718;19.446;2022-07-23T08:38:10;99523.18;;;36.14;27.26
70971;BME280;58632;51.718;19.446;2022-07-23T08:40:40;99523.41;;;36.58;27.27
70971;BME280;58632;51.718;19.446;2022-07-23T08:43:11;99510.72;;;36.81;26.85
70971;BME280;58632;51.718;19.446;2022-07-23T08:45:44;99518.64;;;36.87;27.07
70971;BME280;58632;51.718;19.446;2022-07-23T08:48:15;99511.80;;;36.95;26.41
70971;BME280;58632;51.718;19.446;2022-07-23T08:50:54;99507.25;;;36.65;26.95
70971;BME280;58632;51.718;19.446;2022-07-23T08:53:23;99505.04;;;36.49;26.72
70971;BME280;58632;51.718;19.446;2022-07-23T08:55:55;99513.29;;;36.41;26.73
70971;BME280;58632;51.718;19.446;2022-07-23T08:58:25;99517.85;;;36.28;26.51
70971;BME280;58632;51.718;19.446;2022-07-23T09:00:52;99507.10;;;36.11;26.58
70971;BME280;58632;51.718;19.446;2022-07-23T09:03:24;99508.49;;;35.79;27.32
70971;BME280;58632;51.718;19.446;2022-07-23T09:05:53;99495.50;;;35.89;27.05
70971;BME280;58632;51.718;19.446;2022-07-23T09:08:39;99496.70;;;36.08;28.99
70971;BME280;58632;51.718;19.446;2022-07-23T09:11:14;99488.30;;;36.25;27.13
70971;BME280;58632;51.718;19.446;2022-07-23T09:13:48;99488.17;;;36.24;27.47
70971;BME280;58632;51.718;19.446;2022-07-23T09:16:24;99479.84;;;35.89;26.90
70971;BME280;58632;51.718;19.446;2022-07-23T09:18:57;99490.84;;;35.39;27.38
70971;BME280;58632;51.718;19.446;2022-07-23T09:24:11;99481.69;;;35.19;28.94
70971;BME280;58632;51.718;19.446;2022-07-23T09:26:44;99481.97;;;35.21;29.42
70971;BME280;58632;51.718;19.446;2022-07-23T09:29:18;99487.97;;;35.13;30.28
70971;BME280;58632;51.718;19.446;2022-07-23T09:32:02;99482.41;;;35.14;29.17
70971;BME280;58632;51.718;19.446;2022-07-23T09:34:33;99471.72;;;35.19;29.08
70971;BME280;58632;51.718;19.446;2022-07-23T09:37:15;99466.70;;;35.45;29.44
70971;BME280;58632;51.718;19.446;2022-07-23T09:39:45;99466.03;;;35.66;29.67
70971;BME280;58632;51.718;19.446;2022-07-23T09:44:51;99456.16;;;35.93;27.32
70971;BME280;58632;51.718;19.446;2022-07-23T09:47:22;99454.45;;;36.07;27.37
70971;BME280;58632;51.718;19.446;2022-07-23T09:52:46;99450.67;;;36.37;28.33
70971;BME280;58632;51.718;19.446;2022-07-23T09:55:16;99455.43;;;36.30;27.35
70971;BME280;58632;51.718;19.446;2022-07-23T09:57:46;99453.14;;;36.18;28.74
70971;BME280;58632;51.718;19.446;2022-07-23T10:00:18;99449.03;;;35.93;28.95
70971;BME280;58632;51.718;19.446;2022-07-23T10:02:46;99449.99;;;36.00;28.76
70971;BME280;58632;51.718;19.446;2022-07-23T10:05:15;99445.92;;;36.22;28.96
70971;BME280;58632;51.718;19.446;2022-07-23T10:07:42;99447.34;;;36.44;28.26
70971;BME280;58632;51.718;19.446;2022-07-23T10:10:12;99444.87;;;36.41;28.22
70971;BME280;58632;51.718;19.446;2022-07-23T10:12:46;99438.78;;;36.38;27.78
70971;BME280;58632;51.718;19.446;2022-07-23T10:15:32;99438.19;;;36.50;28.14
70971;BME280;58632;51.718;19.446;2022-07-23T10:17:59;99442.80;;;36.42;25.53
70971;BME280;58632;51.718;19.446;2022-07-23T10:20:27;99440.05;;;36.16;26.89
70971;BME280;58632;51.718;19.446;2022-07-23T10:23:09;99446.23;;;36.14;27.29
70971;BME280;58632;51.718;19.446;2022-07-23T10:26:10;99443.70;;;36.06;28.28
70971;BME280;58632;51.718;19.446;2022-07-23T10:28:52;99434.11;;;35.88;28.43
70971;BME280;58632;51.718;19.446;2022-07-23T10:31:38;99429.19;;;36.04;27.95
70971;BME280;58632;51.718;19.446;2022-07-23T10:37:07;99424.72;;;36.78;26.71
70971;BME280;58632;51.718;19.446;2022-07-23T10:39:35;99429.71;;;36.94;26.36
70971;BME280;58632;51.718;19.446;2022-07-23T10:42:17;99432.13;;;36.80;24.89
70971;BME280;58632;51.718;19.446;2022-07-23T10:44:47;99429.11;;;36.52;24.77
70971;BME280;58632;51.718;19.446;2022-07-23T10:47:27;99420.58;;;36.30;25.22
70971;BME280;58632;51.718;19.446;2022-07-23T10:50:28;99422.88;;;36.26;26.09
70971;BME280;58632;51.718;19.446;2022-07-23T10:53:10;99423.56;;;36.53;26.93
70971;BME280;58632;51.718;19.446;2022-07-23T10:55:51;99422.18;;;36.58;25.62
70971;BME280;58632;51.718;19.446;2022-07-23T10:58:21;99415.16;;;36.81;25.43
70971;BME280;58632;51.718;19.446;2022-07-23T11:00:50;99409.80;;;36.73;26.98
70971;BME280;58632;51.718;19.446;2022-07-23T11:03:32;99406.56;;;36.75;25.88
70971;BME280;58632;51.718;19.446;2022-07-23T11:06:05;99399.86;;;36.84;25.04
70971;BME280;58632;51.718;19.446;2022-07-23T11:08:32;99397.17;;;36.91;25.98
70971;BME280;58632;51.718;19.446;2022-07-23T11:13:42;99398.83;;;36.87;25.99
70971;BME280;58632;51.718;19.446;2022-07-23T11:16:21;99392.72;;;37.22;25.97
70971;BME280;58632;51.718;19.446;2022-07-23T11:18:54;99387.01;;;37.22;25.78
70971;BME280;58632;51.718;19.446;2022-07-23T11:24:15;99385.06;;;36.80;25.61
70971;BME280;58632;51.718;19.446;2022-07-23T11:27:15;99394.50;;;36.49;25.38
70971;BME280;58632;51.718;19.446;2022-07-23T11:32:23;99389.50;;;36.32;25.33
70971;BME280;58632;51.718;19.446;2022-07-23T11:34:53;99379.02;;;36.34;26.55
70971;BME280;58632;51.718;19.446;2022-07-23T11:37:33;99369.19;;;36.40;26.79
70971;BME280;58632;51.718;19.446;2022-07-23T11:40:12;99371.20;;;36.50;26.20
70971;BME280;58632;51.718;19.446;2022-07-23T11:42:53;99370.64;;;36.68;26.39
70971;BME280;58632;51.718;19.446;2022-07-23T11:45:24;99355.48;;;36.72;25.66
70971;BME280;58632;51.718;19.446;2022-07-23T11:47:53;99353.55;;;36.46;24.18
70971;BME280;58632;51.718;19.446;2022-07-23T11:50:23;99348.72;;;36.36;25.34
70971;BME280;58632;51.718;19.446;2022-07-23T11:52:53;99348.39;;;36.07;24.63
70971;BME280;58632;51.718;19.446;2022-07-23T11:55:22;99340.03;;;35.76;25.38
70971;BME280;58632;51.718;19.446;2022-07-23T11:57:51;99330.55;;;35.53;25.00
70971;BME280;58632;51.718;19.446;2022-07-23T12:00:22;99334.16;;;35.54;25.99
70971;BME280;58632;51.718;19.446;2022-07-23T12:02:55;99325.72;;;35.49;25.22
70971;BME280;58632;51.718;19.446;2022-07-23T12:05:30;99324.18;;;35.22;25.25
70971;BME280;58632;51.718;19.446;2022-07-23T12:07:58;99312.71;;;35.27;27.31
70971;BME280;58632;51.718;19.446;2022-07-23T12:10:35;99309.13;;;35.48;27.58
70971;BME280;58632;51.718;19.446;2022-07-23T12:13:10;99303.58;;;35.65;26.90
70971;BME280;58632;51.718;19.446;2022-07-23T12:15:41;99302.41;;;35.61;25.70
70971;BME280;58632;51.718;19.446;2022-07-23T12:18:13;99305.19;;;35.71;24.59
70971;BME280;58632;51.718;19.446;2022-07-23T12:20:45;99314.58;;;36.04;25.36
70971;BME280;58632;51.718;19.446;2022-07-23T12:23:16;99304.00;;;36.38;25.83
70971;BME280;58632;51.718;19.446;2022-07-23T12:25:46;99304.16;;;36.44;24.50
70971;BME280;58632;51.718;19.446;2022-07-23T12:28:27;99301.16;;;36.38;25.23
70971;BME280;58632;51.718;19.446;2022-07-23T12:30:56;99305.74;;;36.18;23.52
70971;BME280;58632;51.718;19.446;2022-07-23T12:33:27;99306.01;;;35.99;24.70
70971;BME280;58632;51.718;19.446;2022-07-23T12:35:58;99305.94;;;35.66;25.71
70971;BME280;58632;51.718;19.446;2022-07-23T12:38:29;99305.93;;;35.18;25.21
70971;BME280;58632;51.718;19.446;2022-07-23T12:40:59;99309.89;;;34.90;25.79
70971;BME280;58632;51.718;19.446;2022-07-23T12:43:31;99305.05;;;34.60;26.34
70971;BME280;58632;51.718;19.446;2022-07-23T12:46:06;99306.05;;;34.47;26.28
70971;BME280;58632;51.718;19.446;2022-07-23T12:48:37;99300.20;;;34.25;26.59
70971;BME280;58632;51.718;19.446;2022-07-23T12:51:08;99308.68;;;33.94;27.28
70971;BME280;58632;51.718;19.446;2022-07-23T12:53:48;99309.09;;;33.77;27.15
70971;BME280;58632;51.718;19.446;2022-07-23T12:56:26;99343.19;;;33.62;27.46
70971;BME280;58632;51.718;19.446;2022-07-23T12:59:09;99385.30;;;33.15;29.88
70971;BME280;58632;51.718;19.446;2022-07-23T13:01:41;99401.94;;;32.01;32.92
70971;BME280;58632;51.718;19.446;2022-07-23T13:04:19;99445.36;;;30.51;40.25
70971;BME280;58632;51.718;19.446;2022-07-23T13:06:57;99430.48;;;28.78;42.84
70971;BME280;58632;51.718;19.446;2022-07-23T13:09:29;99461.66;;;27.47;47.04
70971;BME280;58632;51.718;19.446;2022-07-23T13:11:58;99469.81;;;26.58;47.90
70971;BME280;58632;51.718;19.446;2022-07-23T13:14:27;99476.55;;;26.00;51.21
70971;BME280;58632;51.718;19.446;2022-07-23T13:16:55;99491.37;;;25.61;50.21
70971;BME280;58632;51.718;19.446;2022-07-23T13:19:22;99507.43;;;25.28;51.61
70971;BME280;58632;51.718;19.446;2022-07-23T13:21:50;99505.30;;;25.01;52.34